Time;durP1;ratioP1;P1;durP2;ratioP2;P2;SDS_P1;SDS_P2;PMS_P1;PMS_P2;Temp;Humidity;BMP_temperature;BMP_pressure;BME280_temperature;BME280_humidity;BME280_pressure;Samples;Min_cycle;Max_cycle;Signal;HPM_P1;HPM_P2
2023/12/14 00:02:19;;;;;;;36.53;17.93;;;9.60;99.90;;;;;;5071873;28;20702;-68
2023/12/14 00:04:45;;;;;;;45.00;16.90;;;9.60;99.90;;;;;;5072070;28;20208;-70
2023/12/14 00:07:14;;;;;;;41.17;17.70;;;9.60;99.90;;;;;;5071959;28;20248;-68
2023/12/14 00:09:40;;;;;;;42.33;18.53;;;9.70;99.90;;;;;;5071757;28;20181;-69
2023/12/14 00:12:05;;;;;;;34.47;16.40;;;9.60;99.90;;;;;;5071982;28;20420;-69
2023/12/14 00:14:31;;;;;;;45.70;18.63;;;9.70;99.90;;;;;;5071797;28;20710;-68
2023/12/14 00:16:59;;;;;;;36.87;17.90;;;9.70;99.90;;;;;;5071777;28;20782;-68
2023/12/14 00:19:24;;;;;;;36.90;17.20;;;9.70;99.90;;;;;;5071135;28;20169;-69
2023/12/14 00:21:50;;;;;;;36.33;17.10;;;9.70;99.90;;;;;;5071908;28;20424;-68
2023/12/14 00:24:15;;;;;;;33.77;17.53;;;9.70;99.90;;;;;;5071678;28;20170;-70
2023/12/14 00:26:41;;;;;;;40.27;16.33;;;9.70;99.90;;;;;;5070460;28;20195;-69
2023/12/14 00:29:06;;;;;;;31.70;15.37;;;9.60;99.90;;;;;;5070432;28;20193;-69
2023/12/14 00:31:32;;;;;;;28.03;14.97;;;9.70;99.90;;;;;;5070580;28;20273;-68
2023/12/14 00:33:57;;;;;;;28.27;15.10;;;9.70;99.90;;;;;;5070425;28;20158;-70
2023/12/14 00:36:23;;;;;;;35.07;16.57;;;9.60;99.90;;;;;;5070861;28;20178;-69
2023/12/14 00:38:48;;;;;;;31.60;16.73;;;9.70;99.90;;;;;;5071399;28;20170;-68
2023/12/14 00:41:14;;;;;;;35.93;17.23;;;9.70;99.90;;;;;;5071298;28;20554;-69
2023/12/14 00:43:40;;;;;;;36.07;15.87;;;9.60;99.90;;;;;;5070704;28;20634;-69
2023/12/14 00:46:05;;;;;;;32.23;16.40;;;9.70;99.90;;;;;;5071529;28;20864;-69
2023/12/14 00:48:31;;;;;;;30.63;16.57;;;9.60;99.90;;;;;;5071651;28;20185;-68
2023/12/14 00:50:56;;;;;;;33.70;16.30;;;9.70;99.90;;;;;;5071309;28;20197;-69
2023/12/14 00:53:22;;;;;;;28.60;16.23;;;9.70;99.90;;;;;;5071158;28;20206;-69
2023/12/14 00:55:48;;;;;;;32.20;17.80;;;9.70;99.90;;;;;;5071663;28;20169;-68
2023/12/14 00:58:13;;;;;;;30.07;15.23;;;9.60;99.90;;;;;;5071596;28;20175;-68
2023/12/14 01:00:39;;;;;;;37.83;16.67;;;9.70;99.90;;;;;;5071311;28;20187;-68
2023/12/14 01:03:04;;;;;;;29.90;16.50;;;9.70;99.90;;;;;;5071354;28;20583;-69
2023/12/14 01:05:30;;;;;;;32.20;17.97;;;9.70;99.90;;;;;;5071613;28;20176;-68
2023/12/14 01:07:55;;;;;;;35.03;17.50;;;9.70;99.90;;;;;;5071376;28;20276;-68
2023/12/14 01:10:21;;;;;;;40.03;20.13;;;9.70;99.90;;;;;;5071288;28;20166;-69
2023/12/14 01:12:46;;;;;;;47.83;20.23;;;9.70;99.90;;;;;;5071412;28;20159;-69
2023/12/14 01:15:12;;;;;;;47.00;20.27;;;9.70;99.90;;;;;;5071476;28;20166;-68
2023/12/14 01:17:37;;;;;;;37.23;15.67;;;9.70;99.90;;;;;;5071391;28;20232;-69
2023/12/14 01:20:06;;;;;;;38.47;18.90;;;9.70;99.90;;;;;;5071237;28;20181;-68
2023/12/14 01:22:32;;;;;;;31.33;17.70;;;9.70;99.90;;;;;;5071140;28;20236;-68
2023/12/14 01:24:57;;;;;;;43.07;21.23;;;9.70;99.90;;;;;;5071369;28;20898;-68
2023/12/14 01:27:23;;;;;;;38.10;18.83;;;9.70;99.90;;;;;;5069886;28;20198;-68
2023/12/14 01:29:48;;;;;;;40.77;17.10;;;9.70;99.90;;;;;;5073004;28;20250;-69
2023/12/14 01:32:14;;;;;;;37.90;18.30;;;9.70;99.90;;;;;;5074693;28;20541;-68
2023/12/14 01:34:39;;;;;;;40.50;20.70;;;9.70;99.90;;;;;;5074774;28;20169;-68
2023/12/14 01:37:05;;;;;;;41.70;19.27;;;9.70;99.90;;;;;;5074693;28;20166;-69
2023/12/14 01:39:30;;;;;;;37.53;19.07;;;9.70;99.90;;;;;;5074620;28;20167;-69
2023/12/14 01:41:56;;;;;;;42.57;18.87;;;9.70;99.90;;;;;;5073413;28;20676;-68
2023/12/14 01:44:21;;;;;;;41.07;20.20;;;9.70;99.90;;;;;;5074683;28;20175;-68
2023/12/14 01:46:47;;;;;;;41.27;19.70;;;9.70;99.90;;;;;;5074417;28;20189;-69
2023/12/14 01:49:12;;;;;;;40.60;20.93;;;9.70;99.90;;;;;;5074327;28;20174;-68
2023/12/14 01:51:38;;;;;;;40.20;19.43;;;9.70;99.90;;;;;;5074442;28;20597;-68
2023/12/14 01:54:03;;;;;;;45.80;21.80;;;9.70;99.90;;;;;;5074011;28;20181;-68
2023/12/14 01:56:29;;;;;;;41.30;19.53;;;9.70;99.90;;;;;;5074395;28;20216;-70
2023/12/14 01:58:54;;;;;;;32.90;16.90;;;9.70;99.90;;;;;;5074192;28;20212;-68
2023/12/14 02:01:32;;;;;;;36.63;20.60;;;9.70;99.90;;;;;;5074190;28;20194;-69
2023/12/14 02:03:57;;;;;;;39.07;20.80;;;9.70;99.90;;;;;;5074113;28;20219;-68
2023/12/14 02:06:23;;;;;;;34.30;21.73;;;9.70;99.90;;;;;;5074085;28;20448;-69
2023/12/14 02:08:48;;;;;;;43.07;22.33;;;9.70;99.90;;;;;;5074004;28;20179;-68
2023/12/14 02:11:14;;;;;;;33.83;17.70;;;9.70;99.90;;;;;;5072765;28;20193;-68
2023/12/14 02:13:40;;;;;;;34.63;17.97;;;9.70;99.90;;;;;;5073941;28;20526;-69
2023/12/14 02:16:05;;;;;;;43.37;17.57;;;9.70;99.90;;;;;;5074079;28;20166;-69
2023/12/14 02:18:31;;;;;;;36.77;18.23;;;9.70;99.90;;;;;;5073996;28;20166;-68
2023/12/14 02:20:56;;;;;;;48.07;19.57;;;9.70;99.90;;;;;;5073649;28;20518;-69
2023/12/14 02:23:22;;;;;;;40.73;19.20;;;9.70;99.90;;;;;;5072509;28;20166;-68
2023/12/14 02:25:48;;;;;;;41.60;20.03;;;9.70;99.90;;;;;;5073863;28;20194;-70
2023/12/14 02:28:13;;;;;;;43.93;19.27;;;9.70;99.90;;;;;;5071818;28;20221;-68
2023/12/14 02:30:39;;;;;;;40.40;20.50;;;9.60;99.90;;;;;;5073328;28;20594;-68
2023/12/14 02:33:04;;;;;;;40.60;18.87;;;9.60;99.90;;;;;;5073611;28;20170;-68
2023/12/14 02:35:30;;;;;;;41.77;21.33;;;9.60;99.90;;;;;;5073282;28;20170;-69
2023/12/14 02:37:55;;;;;;;35.53;20.60;;;9.60;99.90;;;;;;5073356;28;20216;-69
2023/12/14 02:40:21;;;;;;;40.80;19.87;;;9.50;99.90;;;;;;5072823;28;20167;-69
2023/12/14 02:42:46;;;;;;;34.33;18.17;;;9.50;99.90;;;;;;5073175;28;20706;-69
2023/12/14 02:45:12;;;;;;;34.27;19.20;;;9.50;99.90;;;;;;5073448;28;20584;-69
2023/12/14 02:47:37;;;;;;;35.13;18.20;;;9.50;99.90;;;;;;5073091;28;20201;-69
2023/12/14 02:50:03;;;;;;;34.77;18.80;;;9.50;99.90;;;;;;5072729;28;20169;-68
2023/12/14 02:52:29;;;;;;;35.63;18.10;;;9.40;99.90;;;;;;5073134;28;20179;-68
2023/12/14 02:54:54;;;;;;;46.13;18.10;;;9.40;99.90;;;;;;5073062;28;20426;-69
2023/12/14 02:57:20;;;;;;;34.40;16.37;;;9.40;99.90;;;;;;5073206;28;20173;-70
2023/12/14 02:59:45;;;;;;;34.33;18.70;;;9.30;99.90;;;;;;5073014;28;20177;-68
2023/12/14 03:02:11;;;;;;;32.03;15.77;;;9.30;99.90;;;;;;5073044;28;20794;-68
2023/12/14 03:04:40;;;;;;;31.90;17.47;;;9.30;99.90;;;;;;5072767;28;20181;-69
2023/12/14 03:07:06;;;;;;;31.70;16.67;;;9.30;99.90;;;;;;5073027;28;20281;-68
2023/12/14 03:09:32;;;;;;;40.60;18.93;;;9.20;99.90;;;;;;5072844;28;20401;-69
2023/12/14 03:11:57;;;;;;;37.80;20.50;;;9.20;99.90;;;;;;5072798;28;20408;-68
2023/12/14 03:14:23;;;;;;;35.93;19.33;;;9.20;99.90;;;;;;5072828;28;20411;-69
2023/12/14 03:16:48;;;;;;;37.20;18.97;;;9.10;99.90;;;;;;5072811;28;20234;-69
2023/12/14 03:19:15;;;;;;;33.43;18.33;;;9.10;99.90;;;;;;5072554;28;20162;-69
2023/12/14 03:21:41;;;;;;;31.00;17.03;;;9.10;99.90;;;;;;5072624;28;20205;-69
2023/12/14 03:24:07;;;;;;;30.30;17.50;;;9.10;99.90;;;;;;5072424;28;20920;-69
2023/12/14 03:26:33;;;;;;;38.73;19.87;;;9.00;99.90;;;;;;5072316;28;20691;-69
2023/12/14 03:28:58;;;;;;;31.60;17.57;;;9.00;99.90;;;;;;5071081;28;20700;-68
2023/12/14 03:31:24;;;;;;;34.43;18.70;;;9.00;99.90;;;;;;5072494;28;20416;-68
2023/12/14 03:33:49;;;;;;;34.97;16.97;;;9.00;99.90;;;;;;5072350;28;20344;-69
2023/12/14 03:36:15;;;;;;;29.90;16.67;;;9.00;99.90;;;;;;5072372;28;20221;-69
2023/12/14 03:38:40;;;;;;;33.23;19.37;;;9.00;99.90;;;;;;5072212;28;20173;-69
2023/12/14 03:41:06;;;;;;;28.37;17.17;;;9.00;99.90;;;;;;5072281;28;20181;-68
2023/12/14 03:43:31;;;;;;;35.73;17.20;;;9.00;99.90;;;;;;5072172;28;20657;-69
2023/12/14 03:45:57;;;;;;;28.83;15.90;;;9.00;99.90;;;;;;5072297;28;20166;-70
2023/12/14 03:48:22;;;;;;;27.40;15.20;;;9.00;99.90;;;;;;5070906;28;20246;-68
2023/12/14 03:50:48;;;;;;;31.70;17.60;;;9.00;99.90;;;;;;5071965;28;20186;-69
2023/12/14 03:53:13;;;;;;;29.63;16.53;;;9.00;99.90;;;;;;5071081;28;20241;-68
2023/12/14 03:55:39;;;;;;;33.43;16.40;;;9.00;99.90;;;;;;5072060;28;20186;-69
2023/12/14 03:58:04;;;;;;;42.37;15.90;;;9.00;99.90;;;;;;5072205;28;20158;-69
2023/12/14 04:00:30;;;;;;;35.70;17.00;;;9.00;99.90;;;;;;5071907;28;20220;-69
2023/12/14 04:02:55;;;;;;;37.70;17.97;;;9.00;99.90;;;;;;5071976;28;20272;-69
2023/12/14 04:05:21;;;;;;;25.07;12.47;;;9.00;99.90;;;;;;5072099;28;20522;-68
2023/12/14 04:07:46;;;;;;;22.20;13.80;;;8.90;99.90;;;;;;5071907;28;20311;-69
2023/12/14 04:10:13;;;;;;;23.67;13.10;;;8.90;99.90;;;;;;5071691;28;20166;-69
2023/12/14 04:12:39;;;;;;;32.13;16.07;;;8.80;99.90;;;;;;5071803;28;20269;-68
2023/12/14 04:15:06;;;;;;;37.10;16.50;;;8.70;99.90;;;;;;5072027;28;20411;-68
2023/12/14 04:17:33;;;;;;;32.83;15.50;;;8.60;99.90;;;;;;5071871;28;20447;-68
2023/12/14 04:19:59;;;;;;;45.87;18.33;;;8.60;99.90;;;;;;5071692;28;20904;-68
2023/12/14 04:22:24;;;;;;;34.47;16.40;;;8.50;99.90;;;;;;5071664;28;20451;-68
2023/12/14 04:24:50;;;;;;;25.37;13.80;;;8.50;99.90;;;;;;5071808;28;20412;-69
2023/12/14 04:27:16;;;;;;;25.60;12.50;;;8.50;99.90;;;;;;5071766;28;20226;-69
2023/12/14 04:29:41;;;;;;;23.27;12.13;;;8.40;99.90;;;;;;5071788;28;20407;-69
2023/12/14 04:32:07;;;;;;;23.60;12.20;;;8.40;99.90;;;;;;5071328;28;20265;-68
2023/12/14 04:34:33;;;;;;;23.53;12.93;;;8.40;99.90;;;;;;5071312;28;20172;-69
2023/12/14 04:36:58;;;;;;;26.10;12.17;;;8.50;99.90;;;;;;5071766;28;20899;-69
2023/12/14 04:39:25;;;;;;;28.93;11.73;;;8.40;99.90;;;;;;5071490;28;20170;-69
2023/12/14 04:41:52;;;;;;;31.30;13.07;;;8.40;99.90;;;;;;5071555;28;20606;-68
2023/12/14 04:44:18;;;;;;;26.70;13.00;;;8.40;99.90;;;;;;5071765;28;20826;-68
2023/12/14 04:46:43;;;;;;;28.90;14.87;;;8.40;99.90;;;;;;5071550;28;20484;-68
2023/12/14 04:49:09;;;;;;;25.73;13.63;;;8.40;99.90;;;;;;5071540;28;20162;-68
2023/12/14 04:51:34;;;;;;;31.87;14.20;;;8.40;99.90;;;;;;5071556;28;20182;-69
2023/12/14 04:54:00;;;;;;;28.20;13.93;;;8.40;99.90;;;;;;5071361;28;20178;-69
2023/12/14 04:56:25;;;;;;;27.77;15.37;;;8.40;99.90;;;;;;5071658;28;20744;-68
2023/12/14 04:58:51;;;;;;;32.60;15.30;;;8.40;99.90;;;;;;5071275;28;20637;-69
2023/12/14 05:01:16;;;;;;;26.43;16.50;;;8.30;99.90;;;;;;5071404;28;20588;-70
2023/12/14 05:03:42;;;;;;;27.43;14.70;;;8.30;99.90;;;;;;5071751;28;20170;-68
2023/12/14 05:06:07;;;;;;;32.73;17.80;;;8.30;99.90;;;;;;5075461;28;20166;-69
2023/12/14 05:08:33;;;;;;;30.00;15.23;;;8.30;99.90;;;;;;5075133;28;20684;-69
2023/12/14 05:10:59;;;;;;;31.63;15.97;;;8.20;99.90;;;;;;5075228;28;20265;-69
2023/12/14 05:13:24;;;;;;;35.53;16.97;;;8.20;99.90;;;;;;5075207;28;20174;-68
2023/12/14 05:15:51;;;;;;;37.07;19.07;;;8.20;99.90;;;;;;5075106;28;20688;-69
2023/12/14 05:18:17;;;;;;;35.00;15.77;;;8.20;99.90;;;;;;5075104;28;20674;-68
2023/12/14 05:20:43;;;;;;;34.57;17.17;;;8.20;99.90;;;;;;5074805;28;20424;-69
2023/12/14 05:23:08;;;;;;;26.43;16.30;;;8.20;99.90;;;;;;5074716;28;20174;-68
2023/12/14 05:25:34;;;;;;;32.53;16.47;;;8.20;99.90;;;;;;5074886;28;20194;-69
2023/12/14 05:27:59;;;;;;;24.90;13.03;;;8.20;99.90;;;;;;5074910;28;20560;-68
2023/12/14 05:30:25;;;;;;;27.50;13.47;;;8.20;99.90;;;;;;5074599;28;20162;-69
2023/12/14 05:32:50;;;;;;;23.13;14.37;;;8.20;99.90;;;;;;5074763;28;20655;-68
2023/12/14 05:35:16;;;;;;;20.47;12.57;;;8.20;99.90;;;;;;5074890;28;20625;-68
2023/12/14 05:37:41;;;;;;;25.30;13.80;;;8.20;99.90;;;;;;5074724;28;20170;-68
2023/12/14 05:40:09;;;;;;;25.43;13.67;;;8.20;99.90;;;;;;5073270;28;20269;-69
2023/12/14 05:42:34;;;;;;;24.63;11.27;;;8.20;99.90;;;;;;5073499;28;20222;-68
2023/12/14 05:45:00;;;;;;;26.23;11.47;;;8.20;99.90;;;;;;5074614;28;20950;-69
2023/12/14 05:47:30;;;;;;;27.13;14.43;;;8.20;99.90;;;;;;5074453;28;20200;-69
2023/12/14 05:49:55;;;;;;;28.20;14.43;;;8.20;99.90;;;;;;5074317;28;20186;-69
2023/12/14 05:52:21;;;;;;;25.23;13.73;;;8.10;99.90;;;;;;5074068;28;20456;-69
2023/12/14 05:54:46;;;;;;;29.43;14.70;;;8.10;99.90;;;;;;5074343;28;20185;-68
2023/12/14 05:57:12;;;;;;;22.33;12.77;;;8.10;99.90;;;;;;5074441;28;20170;-69
2023/12/14 05:59:39;;;;;;;33.43;14.57;;;8.10;99.90;;;;;;5074154;28;20167;-68
2023/12/14 06:02:06;;;;;;;26.20;14.93;;;8.10;99.90;;;;;;5074209;28;20420;-69
2023/12/14 06:04:32;;;;;;;31.13;14.47;;;8.10;99.90;;;;;;5074378;28;20409;-69
2023/12/14 06:06:57;;;;;;;24.73;13.27;;;8.00;99.90;;;;;;5074157;28;20796;-70
2023/12/14 06:09:29;;;;;;;34.80;15.23;;;8.00;99.90;;;;;;5074024;28;20656;-68
2023/12/14 06:11:54;;;;;;;26.70;14.83;;;8.00;99.90;;;;;;5072790;28;20197;-69
2023/12/14 06:14:20;;;;;;;32.93;16.03;;;7.90;99.90;;;;;;5074073;28;20392;-68
2023/12/14 06:16:46;;;;;;;37.90;15.17;;;7.90;99.90;;;;;;5072953;28;20176;-69
2023/12/14 06:19:11;;;;;;;33.17;14.37;;;7.90;99.90;;;;;;5073853;28;20194;-69
2023/12/14 06:21:37;;;;;;;36.33;13.63;;;7.90;99.90;;;;;;5073548;28;20187;-68
2023/12/14 06:24:03;;;;;;;32.10;14.57;;;7.90;99.90;;;;;;5073795;28;20171;-69
2023/12/14 06:26:28;;;;;;;28.23;13.90;;;7.90;99.90;;;;;;5073818;28;20163;-69
2023/12/14 06:28:54;;;;;;;34.83;14.10;;;7.80;99.90;;;;;;5073626;28;20400;-69
2023/12/14 06:31:23;;;;;;;29.57;15.73;;;7.80;99.90;;;;;;5073599;28;20209;-69
2023/12/14 06:33:48;;;;;;;29.53;14.10;;;7.80;99.90;;;;;;5073561;28;20169;-68
2023/12/14 06:36:17;;;;;;;28.70;14.20;;;7.80;99.90;;;;;;5073666;28;20955;-69
2023/12/14 06:38:42;;;;;;;27.37;13.30;;;7.80;99.90;;;;;;5073333;28;20291;-69
2023/12/14 06:41:08;;;;;;;29.13;13.63;;;7.80;99.90;;;;;;5073470;28;20417;-70
2023/12/14 06:43:34;;;;;;;25.10;13.00;;;7.80;99.90;;;;;;5073506;28;20155;-69
2023/12/14 06:46:00;;;;;;;37.03;14.17;;;7.70;99.90;;;;;;5073495;28;21201;-69
2023/12/14 06:48:25;;;;;;;26.53;12.97;;;7.70;99.90;;;;;;5073435;28;20713;-69
2023/12/14 06:50:51;;;;;;;31.73;13.37;;;7.70;99.90;;;;;;5073145;28;21079;-69
2023/12/14 06:53:16;;;;;;;31.00;13.87;;;7.70;99.90;;;;;;5073122;28;20181;-69
2023/12/14 06:55:42;;;;;;;30.10;12.70;;;7.70;99.90;;;;;;5073448;28;20678;-69
2023/12/14 06:58:11;;;;;;;34.60;13.93;;;7.70;99.90;;;;;;5073262;28;20235;-69
2023/12/14 07:00:37;;;;;;;33.17;15.23;;;7.70;99.90;;;;;;5072837;28;20425;-71
2023/12/14 07:03:03;;;;;;;30.57;15.13;;;7.70;99.90;;;;;;5072972;28;20951;-70
2023/12/14 07:05:28;;;;;;;31.30;12.07;;;7.70;99.90;;;;;;5073095;28;20404;-70
2023/12/14 07:07:56;;;;;;;33.63;14.07;;;7.70;99.90;;;;;;5073014;28;20837;-69
2023/12/14 07:10:22;;;;;;;30.47;13.60;;;7.60;99.90;;;;;;5072863;28;20247;-69
2023/12/14 07:12:47;;;;;;;31.17;13.90;;;7.60;99.90;;;;;;5072825;28;20823;-70
2023/12/14 07:15:13;;;;;;;29.90;12.80;;;7.60;99.90;;;;;;5072914;28;20162;-70
2023/12/14 07:17:38;;;;;;;29.60;14.10;;;7.60;99.90;;;;;;5072801;28;20259;-69
2023/12/14 07:20:06;;;;;;;23.93;12.70;;;7.60;99.90;;;;;;5072682;28;20182;-69
2023/12/14 07:22:31;;;;;;;30.07;14.57;;;7.60;99.90;;;;;;5072612;28;20182;-69
2023/12/14 07:24:57;;;;;;;29.20;13.27;;;7.60;99.90;;;;;;5072672;28;20410;-69
2023/12/14 07:27:22;;;;;;;27.67;12.90;;;7.60;99.90;;;;;;5072267;28;20217;-69
2023/12/14 07:29:48;;;;;;;31.20;12.97;;;7.60;99.90;;;;;;5072370;28;20556;-69
2023/12/14 07:32:13;;;;;;;37.53;16.27;;;7.60;99.90;;;;;;5072412;28;20197;-69
2023/12/14 07:34:39;;;;;;;35.60;15.50;;;7.60;99.90;;;;;;5072536;28;20166;-70
2023/12/14 07:37:05;;;;;;;31.17;15.20;;;7.60;99.90;;;;;;5072485;28;20177;-69
2023/12/14 07:39:31;;;;;;;37.37;13.57;;;7.50;99.90;;;;;;5072305;28;20162;-69
2023/12/14 07:41:56;;;;;;;27.30;13.57;;;7.50;99.90;;;;;;5072263;28;21120;-69
2023/12/14 07:44:24;;;;;;;28.20;14.60;;;7.50;99.90;;;;;;5072309;28;20170;-69
2023/12/14 07:46:50;;;;;;;25.50;12.63;;;7.50;99.90;;;;;;5072231;28;20707;-69
2023/12/14 07:49:20;;;;;;;24.13;13.33;;;7.50;99.90;;;;;;5070819;28;20400;-69
2023/12/14 07:51:46;;;;;;;22.93;11.73;;;7.50;99.90;;;;;;5072163;28;20236;-71
2023/12/14 07:54:11;;;;;;;25.83;11.47;;;7.50;99.90;;;;;;5072085;28;20421;-71
2023/12/14 07:56:37;;;;;;;26.83;11.87;;;7.50;99.90;;;;;;5070941;28;21010;-70
2023/12/14 07:59:06;;;;;;;21.90;10.97;;;7.50;99.90;;;;;;5071928;28;20177;-71
2023/12/14 08:01:32;;;;;;;23.07;10.23;;;7.60;99.90;;;;;;5072094;28;20182;-70
2023/12/14 08:03:57;;;;;;;25.50;11.83;;;7.60;99.90;;;;;;5071991;28;20426;-70
2023/12/14 08:06:23;;;;;;;20.73;9.83;;;7.60;99.90;;;;;;5072035;28;20166;-70
2023/12/14 08:08:48;;;;;;;25.43;10.70;;;7.60;99.90;;;;;;5071853;28;20216;-70
2023/12/14 08:11:14;;;;;;;27.80;11.23;;;7.60;99.90;;;;;;5071929;28;20224;-70
2023/12/14 08:13:40;;;;;;;21.80;10.63;;;7.60;99.90;;;;;;5071513;28;20165;-70
2023/12/14 08:16:07;;;;;;;18.50;10.63;;;7.50;99.90;;;;;;5071946;28;20184;-71
2023/12/14 08:18:32;;;;;;;22.10;11.60;;;7.60;99.90;;;;;;5071862;28;20753;-71
2023/12/14 08:20:58;;;;;;;25.20;12.67;;;7.60;99.90;;;;;;5071560;28;20421;-71
2023/12/14 08:23:27;;;;;;;18.53;11.47;;;7.60;99.90;;;;;;5071876;28;20181;-71
2023/12/14 08:25:58;;;;;;;25.40;11.83;;;7.60;99.90;;;;;;5071896;28;20173;-70
2023/12/14 08:28:25;;;;;;;21.27;12.17;;;7.60;99.90;;;;;;5071534;28;20459;-71
2023/12/14 08:30:51;;;;;;;20.80;10.90;;;7.60;99.90;;;;;;5071477;28;20420;-71
2023/12/14 08:33:16;;;;;;;21.33;12.60;;;7.60;99.90;;;;;;5071725;28;20411;-72
2023/12/14 08:35:42;;;;;;;18.33;10.70;;;7.60;99.90;;;;;;5071820;28;20918;-72
2023/12/14 08:38:07;;;;;;;20.47;11.27;;;7.60;99.90;;;;;;5071754;28;20166;-71
2023/12/14 08:40:33;;;;;;;35.77;17.33;;;7.60;99.90;;;;;;5075070;28;20166;-71
2023/12/14 08:42:59;;;;;;;25.40;12.60;;;7.60;99.90;;;;;;5075745;28;20245;-72
2023/12/14 08:45:24;;;;;;;20.53;10.00;;;7.50;99.90;;;;;;5075754;28;20252;-72
2023/12/14 08:47:50;;;;;;;26.27;12.73;;;7.50;99.90;;;;;;5074462;28;20198;-71
2023/12/14 08:50:15;;;;;;;22.77;13.30;;;7.40;99.90;;;;;;5075637;28;20162;-70
2023/12/14 08:52:41;;;;;;;26.73;12.43;;;7.50;99.90;;;;;;5075658;28;20205;-71
2023/12/14 08:55:08;;;;;;;30.90;14.60;;;7.50;99.90;;;;;;5075670;28;20167;-71
2023/12/14 08:57:34;;;;;;;26.83;14.20;;;7.50;99.90;;;;;;5075452;28;20236;-71
2023/12/14 08:59:59;;;;;;;30.77;13.10;;;7.40;99.90;;;;;;5075264;28;20392;-70
2023/12/14 09:02:25;;;;;;;27.00;13.47;;;7.40;99.90;;;;;;5075408;28;20420;-71
2023/12/14 09:04:51;;;;;;;25.60;13.57;;;7.40;99.90;;;;;;5075422;28;20178;-72
2023/12/14 09:07:17;;;;;;;23.43;13.27;;;7.40;99.90;;;;;;5075354;28;20190;-71
2023/12/14 09:09:42;;;;;;;23.77;11.60;;;7.30;99.90;;;;;;5075195;28;20400;-70
2023/12/14 09:12:09;;;;;;;19.77;11.87;;;7.30;99.90;;;;;;5075013;28;20181;-70
2023/12/14 09:14:35;;;;;;;26.70;13.40;;;7.40;99.90;;;;;;5075192;28;20487;-71
2023/12/14 09:17:00;;;;;;;23.50;11.87;;;7.30;99.90;;;;;;5075207;28;20167;-70
2023/12/14 09:19:26;;;;;;;26.00;12.60;;;7.30;99.90;;;;;;5074980;28;20201;-70
2023/12/14 09:21:51;;;;;;;30.67;12.47;;;7.30;99.90;;;;;;5075018;28;20194;-70
2023/12/14 09:24:18;;;;;;;28.40;14.67;;;7.30;99.90;;;;;;5075024;28;20174;-71
2023/12/14 09:26:43;;;;;;;23.43;13.50;;;7.30;99.90;;;;;;5073881;28;20198;-69
2023/12/14 09:29:09;;;;;;;21.07;11.70;;;7.30;99.90;;;;;;5074857;28;20393;-70
2023/12/14 09:31:35;;;;;;;28.20;13.27;;;7.30;99.90;;;;;;5074949;28;20303;-70
2023/12/14 09:34:00;;;;;;;20.30;10.93;;;7.30;99.90;;;;;;5074889;28;20467;-69
2023/12/14 09:36:26;;;;;;;22.03;12.50;;;7.20;99.90;;;;;;5074985;28;20253;-69
2023/12/14 09:38:51;;;;;;;24.43;11.77;;;7.20;99.90;;;;;;5074778;28;20809;-69
2023/12/14 09:41:17;;;;;;;23.87;12.30;;;7.30;99.90;;;;;;5074696;28;20182;-70
2023/12/14 09:43:45;;;;;;;21.90;12.50;;;7.30;99.90;;;;;;5074359;28;20158;-70
2023/12/14 09:46:11;;;;;;;25.10;12.20;;;7.30;99.90;;;;;;5074571;28;20392;-69
2023/12/14 09:48:37;;;;;;;23.07;12.50;;;7.30;99.90;;;;;;5074379;28;20448;-69
2023/12/14 09:51:02;;;;;;;24.87;12.73;;;7.40;99.90;;;;;;5074384;28;20775;-69
2023/12/14 09:53:28;;;;;;;20.97;12.50;;;7.40;99.90;;;;;;5074367;28;20178;-69
2023/12/14 09:55:53;;;;;;;28.03;13.20;;;7.40;99.90;;;;;;5074475;28;20163;-69
2023/12/14 09:58:19;;;;;;;21.43;11.90;;;7.50;99.90;;;;;;5074420;28;20252;-69
2023/12/14 10:00:46;;;;;;;24.50;13.37;;;7.50;99.90;;;;;;5074267;28;20218;-70
2023/12/14 10:03:17;;;;;;;23.10;11.97;;;7.60;99.90;;;;;;5073020;28;20903;-69
2023/12/14 10:05:43;;;;;;;26.03;12.93;;;7.60;99.90;;;;;;5074072;28;20166;-69
2023/12/14 10:08:08;;;;;;;27.40;13.40;;;7.60;99.90;;;;;;5074187;28;20555;-69
2023/12/14 10:10:34;;;;;;;24.67;13.10;;;7.60;99.90;;;;;;5073705;28;20174;-69
2023/12/14 10:12:59;;;;;;;21.80;12.27;;;7.60;99.90;;;;;;5073968;28;20175;-69
2023/12/14 10:15:26;;;;;;;28.60;13.90;;;7.60;99.90;;;;;;5073854;28;20171;-69
2023/12/14 10:17:54;;;;;;;26.53;12.40;;;7.60;99.90;;;;;;5073865;28;20174;-70
2023/12/14 10:20:23;;;;;;;23.57;12.93;;;7.60;99.90;;;;;;5073865;28;20443;-70
2023/12/14 10:22:53;;;;;;;23.27;13.77;;;7.60;99.90;;;;;;5073882;28;20405;-70
2023/12/14 10:25:19;;;;;;;23.17;11.90;;;7.60;99.90;;;;;;5073890;28;20756;-70
2023/12/14 10:27:52;;;;;;;25.23;14.20;;;7.70;99.90;;;;;;5072569;28;20810;-70
2023/12/14 10:30:19;;;;;;;25.80;13.10;;;7.70;99.90;;;;;;5073617;28;20408;-70
2023/12/14 10:32:49;;;;;;;22.10;12.20;;;7.70;99.90;;;;;;5073723;28;20428;-70
2023/12/14 10:35:19;;;;;;;26.47;13.10;;;7.80;99.90;;;;;;5074056;28;20405;-70
2023/12/14 10:37:46;;;;;;;26.17;12.77;;;7.80;99.90;;;;;;5073682;28;20887;-70
2023/12/14 10:40:13;;;;;;;23.60;13.10;;;7.80;99.90;;;;;;5073411;28;20409;-70
2023/12/14 10:42:43;;;;;;;23.50;11.90;;;7.80;99.90;;;;;;5073469;28;20428;-70
2023/12/14 10:45:12;;;;;;;22.23;11.77;;;7.90;99.90;;;;;;5073530;28;20423;-70
2023/12/14 10:47:43;;;;;;;27.00;12.67;;;7.90;99.90;;;;;;5073235;28;20483;-70
2023/12/14 10:50:11;;;;;;;17.67;10.70;;;7.90;99.90;;;;;;5073225;28;20403;-70
2023/12/14 10:52:40;;;;;;;20.63;11.30;;;7.90;99.90;;;;;;5073171;28;20427;-70
2023/12/14 10:55:25;;;;;;;18.50;10.70;;;7.90;99.90;;;;;;5071761;28;20428;-70
2023/12/14 10:57:52;;;;;;;23.00;11.37;;;7.90;99.90;;;;;;5073299;28;20481;-71
2023/12/14 11:00:18;;;;;;;25.53;13.43;;;7.90;99.90;;;;;;5072661;28;20414;-71
2023/12/14 11:02:46;;;;;;;22.70;13.90;;;7.90;99.90;;;;;;5072523;28;20409;-72
2023/12/14 11:05:15;;;;;;;18.30;11.37;;;7.90;99.90;;;;;;5073142;28;20564;-71
2023/12/14 11:07:55;;;;;;;22.00;11.93;;;7.90;99.90;;;;;;5072932;28;20517;-71
2023/12/14 11:10:35;;;;;;;24.70;12.03;;;7.90;99.90;;;;;;5071493;28;20503;-70
2023/12/14 11:13:03;;;;;;;22.53;12.60;;;7.90;99.90;;;;;;5072885;28;20791;-70
2023/12/14 11:15:30;;;;;;;21.27;12.27;;;7.80;99.90;;;;;;5072853;28;20761;-70
2023/12/14 11:18:08;;;;;;;24.57;11.97;;;7.80;99.90;;;;;;5072861;28;20417;-71
2023/12/14 11:20:58;;;;;;;19.97;11.23;;;7.80;99.90;;;;;;5072599;28;20404;-71
2023/12/14 11:23:24;;;;;;;18.47;10.43;;;7.70;99.90;;;;;;5072627;28;20408;-71
2023/12/14 11:25:52;;;;;;;17.63;10.20;;;7.70;99.90;;;;;;5072659;28;20435;-71
2023/12/14 11:28:19;;;;;;;21.20;10.87;;;7.70;99.90;;;;;;5072642;28;20977;-71
2023/12/14 11:30:44;;;;;;;18.57;10.87;;;7.70;99.90;;;;;;5072371;28;20432;-71
2023/12/14 11:33:14;;;;;;;24.57;12.37;;;7.70;99.90;;;;;;5071199;28;20411;-71
2023/12/14 11:35:40;;;;;;;21.27;11.33;;;7.70;99.90;;;;;;5072584;28;20176;-71
2023/12/14 11:38:12;;;;;;;20.63;11.03;;;7.70;99.90;;;;;;5058900;28;20417;-70
2023/12/14 11:40:38;;;;;;;17.57;11.30;;;7.70;99.90;;;;;;5052293;28;20939;-70
2023/12/14 11:43:08;;;;;;;15.97;10.50;;;7.70;99.90;;;;;;5052381;28;20448;-70
2023/12/14 11:45:34;;;;;;;21.87;12.00;;;7.80;99.90;;;;;;5052410;28;20409;-70
2023/12/14 11:48:01;;;;;;;17.27;10.67;;;7.80;99.90;;;;;;5052354;28;20514;-71
2023/12/14 11:50:27;;;;;;;20.43;11.60;;;7.80;99.90;;;;;;5052140;28;20406;-71
2023/12/14 11:52:53;;;;;;;19.40;10.30;;;7.80;99.90;;;;;;5052127;28;20402;-71
2023/12/14 11:55:19;;;;;;;18.90;11.40;;;7.70;99.90;;;;;;5052389;28;20171;-71
2023/12/14 11:57:49;;;;;;;22.77;11.80;;;7.70;99.90;;;;;;5052260;28;20178;-71
2023/12/14 12:00:15;;;;;;;15.57;10.90;;;7.70;99.90;;;;;;5052075;28;20900;-70
2023/12/14 12:02:41;;;;;;;19.17;10.93;;;7.70;99.90;;;;;;5052018;28;20436;-71
2023/12/14 12:05:07;;;;;;;16.77;10.53;;;7.70;99.90;;;;;;5052052;28;20418;-71
2023/12/14 12:07:32;;;;;;;16.97;11.20;;;7.80;99.90;;;;;;5051739;28;20827;-70
2023/12/14 12:09:59;;;;;;;20.10;9.90;;;7.80;99.90;;;;;;5057791;28;20423;-71
2023/12/14 12:12:25;;;;;;;21.00;12.53;;;7.80;99.90;;;;;;5071830;28;20192;-71
2023/12/14 12:14:52;;;;;;;18.60;11.50;;;7.80;99.90;;;;;;5071149;28;20495;-71
2023/12/14 12:17:19;;;;;;;16.60;10.87;;;7.80;99.90;;;;;;5071969;28;20257;-70
2023/12/14 12:19:45;;;;;;;17.03;9.97;;;7.80;99.90;;;;;;5071822;28;20428;-71
2023/12/14 12:22:11;;;;;;;18.87;10.80;;;7.80;99.90;;;;;;5071774;28;20528;-71
2023/12/14 12:24:37;;;;;;;19.10;9.77;;;7.90;99.90;;;;;;5071958;28;20411;-70
2023/12/14 12:27:04;;;;;;;15.23;8.50;;;7.90;99.90;;;;;;5071864;28;20274;-71
2023/12/14 12:29:30;;;;;;;15.37;9.80;;;7.90;99.90;;;;;;5071698;28;20411;-71
2023/12/14 12:31:56;;;;;;;15.20;9.50;;;7.90;99.90;;;;;;5071662;28;20423;-71
2023/12/14 12:34:21;;;;;;;19.13;10.67;;;8.00;99.90;;;;;;5071721;28;21068;-71